Time;durP1;ratioP1;P1;durP2;ratioP2;P2;SDS_P1;SDS_P2;PMS_P1;PMS_P2;Temp;Humidity;BMP_temperature;BMP_pressure;BME280_temperature;BME280_humidity;BME280_pressure;Samples;Min_cycle;Max_cycle;Signal;HPM_P1;HPM_P2
2022/10/23 00:02:18;;;;;;;;;;;;;;;16.62;72.18;100443.03;4973778;28;20285;-68
2022/10/23 00:04:43;;;;;;;;;;;;;;;16.83;71.50;100435.88;4972206;28;19926;-68
2022/10/23 00:07:09;;;;;;;;;;;;;;;16.74;71.61;100433.66;4974666;28;19960;-68
2022/10/23 00:09:34;;;;;;;;;;;;;;;16.93;71.17;100436.34;4972752;28;19968;-68
2022/10/23 00:11:59;;;;;;;;;;;;;;;16.91;71.43;100449.66;4973518;28;20059;-68
2022/10/23 00:14:25;;;;;;;;;;;;;;;17.13;71.00;100444.22;4973791;28;20397;-68
2022/10/23 00:16:50;;;;;;;;;;;;;;;17.08;70.85;100442.72;4974084;28;19961;-68
2022/10/23 00:19:16;;;;;;;;;;;;;;;17.91;67.90;100448.38;4973272;28;19918;-69
2022/10/23 00:21:41;;;;;;;;;;;;;;;18.34;66.08;100448.78;4973378;28;19917;-69
2022/10/23 00:24:07;;;;;;;;;;;;;;;17.44;69.18;100454.22;4974089;28;20404;-68
2022/10/23 00:26:33;;;;;;;;;;;;;;;17.33;69.93;100453.88;4973763;28;19948;-68
2022/10/23 00:28:58;;;;;;;;;;;;;;;17.28;70.18;100458.56;4973160;28;19914;-68
2022/10/23 00:31:24;;;;;;;;;;;;;;;17.25;70.58;100458.69;4977867;28;19922;-69
2022/10/23 00:33:49;;;;;;;;;;;;;;;17.01;71.80;100457.22;4977026;28;19918;-69
2022/10/23 00:36:15;;;;;;;;;;;;;;;17.08;71.29;100458.66;4976996;28;19925;-69
2022/10/23 00:38:41;;;;;;;;;;;;;;;16.95;72.00;100461.84;4975988;28;19918;-68
2022/10/23 00:41:07;;;;;;;;;;;;;;;17.13;71.17;100469.91;4977264;28;19977;-69
2022/10/23 00:43:34;;;;;;;;;;;;;;;17.15;71.22;100466.22;4976601;28;20004;-69
2022/10/23 00:45:59;;;;;;;;;;;;;;;17.29;70.61;100465.59;4976829;28;19961;-69
2022/10/23 00:48:26;;;;;;;;;;;;;;;17.24;70.72;100464.94;4977395;28;19961;-69
2022/10/23 00:50:51;;;;;;;;;;;;;;;17.15;71.24;100460.06;4974432;28;20030;-69
2022/10/23 00:53:18;;;;;;;;;;;;;;;17.13;71.34;100457.50;4976693;28;20338;-68
2022/10/23 00:55:45;;;;;;;;;;;;;;;17.50;70.95;100463.69;4977508;28;19914;-68
2022/10/23 00:58:12;;;;;;;;;;;;;;;17.21;70.72;100454.47;4976670;28;19950;-69
2022/10/23 01:00:48;;;;;;;;;;;;;;;17.81;68.21;100457.75;4976641;28;19973;-69
2022/10/23 01:03:14;;;;;;;;;;;;;;;17.75;68.79;100462.50;4974881;28;20330;-68
2022/10/23 01:05:44;;;;;;;;;;;;;;;17.30;70.85;100466.44;4974811;28;20368;-68
2022/10/23 01:08:15;;;;;;;;;;;;;;;17.53;69.84;100465.34;4974877;28;19945;-68
2022/10/23 01:10:45;;;;;;;;;;;;;;;17.55;69.89;100464.31;4975121;28;19918;-67
2022/10/23 01:13:15;;;;;;;;;;;;;;;17.49;69.87;100468.13;4976371;28;19914;-68
2022/10/23 01:15:41;;;;;;;;;;;;;;;17.36;70.38;100471.47;4976358;28;19958;-69
2022/10/23 01:18:29;;;;;;;;;;;;;;;18.02;68.29;100465.56;4977155;28;19957;-69
2022/10/23 01:21:04;;;;;;;;;;;;;;;17.21;70.34;100465.94;4970444;28;20020;-67
2022/10/23 01:23:51;;;;;;;;;;;;;;;17.19;71.08;100461.63;4976187;28;20298;-68
2022/10/23 01:26:36;;;;;;;;;;;;;;;17.23;71.15;100455.25;4977013;28;19969;-68
2022/10/23 01:29:18;;;;;;;;;;;;;;;17.14;71.58;100463.66;4965387;28;19973;-68
2022/10/23 01:31:49;;;;;;;;;;;;;;;17.08;71.53;100461.31;4975704;28;19918;-68
2022/10/23 01:34:19;;;;;;;;;;;;;;;17.08;71.86;100463.97;4975935;28;20033;-69
2022/10/23 01:36:47;;;;;;;;;;;;;;;17.09;71.14;100457.72;4975924;28;20008;-68
2022/10/23 01:39:26;;;;;;;;;;;;;;;16.95;71.90;100453.88;4975023;28;20374;-69
2022/10/23 01:41:58;;;;;;;;;;;;;;;16.59;73.37;100450.25;4975300;28;20339;-68
2022/10/23 01:44:35;;;;;;;;;;;;;;;16.58;73.68;100461.81;4976055;28;20005;-69
2022/10/23 01:47:01;;;;;;;;;;;;;;;16.29;74.46;100458.66;4975888;28;19922;-69
2022/10/23 01:49:27;;;;;;;;;;;;;;;15.98;76.34;100454.69;4975449;28;20113;-69
2022/10/23 01:51:54;;;;;;;;;;;;;;;16.18;75.47;100458.25;4975754;28;20018;-68
2022/10/23 01:54:22;;;;;;;;;;;;;;;16.00;76.88;100466.09;4973188;28;19918;-68
2022/10/23 01:56:48;;;;;;;;;;;;;;;16.14;76.37;100459.31;4975286;28;20381;-68
2022/10/23 01:59:17;;;;;;;;;;;;;;;16.16;76.08;100460.13;4975558;28;19964;-69
2022/10/23 02:01:44;;;;;;;;;;;;;;;16.16;74.98;100455.69;4975318;28;19964;-69
2022/10/23 02:04:13;;;;;;;;;;;;;;;16.05;76.49;100457.09;4975766;28;19918;-69
2022/10/23 02:06:39;;;;;;;;;;;;;;;15.89;76.95;100457.72;4974715;28;19925;-68
2022/10/23 02:09:05;;;;;;;;;;;;;;;16.01;76.48;100462.50;4975848;28;19922;-69
2022/10/23 02:11:33;;;;;;;;;;;;;;;16.01;76.70;100456.34;4974951;28;20409;-69
2022/10/23 02:14:02;;;;;;;;;;;;;;;16.06;76.73;100456.16;4973847;28;19925;-69
2022/10/23 02:16:45;;;;;;;;;;;;;;;16.14;75.99;100454.88;4974747;28;19921;-69
2022/10/23 02:19:28;;;;;;;;;;;;;;;16.23;75.46;100458.91;4974893;28;19925;-69
2022/10/23 02:22:02;;;;;;;;;;;;;;;16.09;75.96;100456.03;4974473;28;19918;-68
2022/10/23 02:24:33;;;;;;;;;;;;;;;16.04;76.02;100448.28;4973688;28;19914;-68
2022/10/23 02:27:06;;;;;;;;;;;;;;;15.94;76.67;100446.94;4974825;28;20290;-68
2022/10/23 02:29:42;;;;;;;;;;;;;;;15.91;76.45;100447.91;4975598;28;19964;-69
2022/10/23 02:32:08;;;;;;;;;;;;;;;15.84;77.03;100448.22;4975107;28;20366;-68
2022/10/23 02:34:34;;;;;;;;;;;;;;;15.92;76.48;100448.81;4974778;28;19914;-69
2022/10/23 02:36:59;;;;;;;;;;;;;;;15.92;75.35;100454.97;4975672;28;19918;-69
2022/10/23 02:39:26;;;;;;;;;;;;;;;15.92;75.08;100460.25;4973063;28;19928;-69
2022/10/23 02:42:10;;;;;;;;;;;;;;;15.93;75.29;100461.13;4973884;28;19918;-68
2022/10/23 02:44:42;;;;;;;;;;;;;;;15.76;76.67;100464.47;4975648;28;19925;-68
2022/10/23 02:47:10;;;;;;;;;;;;;;;15.89;75.88;100464.81;4974592;28;19972;-68
2022/10/23 02:49:41;;;;;;;;;;;;;;;15.90;76.01;100462.09;4975351;28;19922;-68
2022/10/23 02:52:09;;;;;;;;;;;;;;;16.02;75.13;100458.91;4973394;28;19922;-68
2022/10/23 02:54:46;;;;;;;;;;;;;;;15.83;75.08;100452.69;4975196;28;19940;-68
2022/10/23 02:57:12;;;;;;;;;;;;;;;16.24;75.26;100452.72;4973167;28;19925;-68
2022/10/23 02:59:51;;;;;;;;;;;;;;;15.96;74.31;100447.75;4973483;28;19918;-68
2022/10/23 03:02:31;;;;;;;;;;;;;;;15.87;74.77;100456.91;4974401;28;20289;-67
2022/10/23 03:04:57;;;;;;;;;;;;;;;16.18;74.32;100455.63;4960368;28;19961;-68
2022/10/23 03:07:24;;;;;;;;;;;;;;;15.96;75.14;100453.91;4975388;28;19983;-68
2022/10/23 03:09:49;;;;;;;;;;;;;;;16.15;74.44;100451.28;4975325;28;19914;-68
2022/10/23 03:12:15;;;;;;;;;;;;;;;16.18;73.88;100456.47;4972197;28;20286;-67
2022/10/23 03:14:40;;;;;;;;;;;;;;;16.88;72.26;100460.44;4973685;28;19961;-68
2022/10/23 03:17:05;;;;;;;;;;;;;;;17.13;70.82;100459.28;4973095;28;19922;-68
2022/10/23 03:19:31;;;;;;;;;;;;;;;16.39;72.82;100461.75;4974322;28;20388;-68
2022/10/23 03:21:56;;;;;;;;;;;;;;;16.30;73.24;100452.41;4974560;28;19940;-68
2022/10/23 03:24:21;;;;;;;;;;;;;;;16.30;73.73;100460.38;4973123;28;19986;-68
2022/10/23 03:26:46;;;;;;;;;;;;;;;16.37;73.37;100464.47;4974964;28;19961;-67
2022/10/23 03:29:12;;;;;;;;;;;;;;;16.48;73.08;100472.84;4973350;28;20278;-68
2022/10/23 03:31:37;;;;;;;;;;;;;;;16.64;72.70;100466.84;4971850;28;19929;-67
2022/10/23 03:34:03;;;;;;;;;;;;;;;16.71;72.54;100469.13;4973921;28;19922;-68
2022/10/23 03:36:28;;;;;;;;;;;;;;;16.79;72.56;100465.28;4973988;28;19925;-68
2022/10/23 03:38:55;;;;;;;;;;;;;;;16.90;72.06;100468.31;4974757;28;19918;-68
2022/10/23 03:41:20;;;;;;;;;;;;;;;16.96;72.06;100474.22;4973308;28;19929;-68
2022/10/23 03:43:45;;;;;;;;;;;;;;;17.20;71.14;100466.88;4973483;28;20020;-68
2022/10/23 03:46:11;;;;;;;;;;;;;;;17.16;71.41;100475.06;4974882;28;19933;-68
2022/10/23 03:48:37;;;;;;;;;;;;;;;17.06;71.72;100485.25;4972983;28;19961;-67
2022/10/23 03:51:04;;;;;;;;;;;;;;;17.14;71.54;100482.25;4969132;28;20415;-67
2022/10/23 03:53:29;;;;;;;;;;;;;;;17.18;71.46;100473.19;4980137;28;19961;-68
2022/10/23 03:55:54;;;;;;;;;;;;;;;17.04;72.26;100484.47;4972705;28;19929;-68
2022/10/23 03:58:20;;;;;;;;;;;;;;;17.10;72.04;100480.66;4972288;28;20355;-68
2022/10/23 04:00:45;;;;;;;;;;;;;;;17.22;71.60;100486.25;4957071;28;19969;-67
2022/10/23 04:03:10;;;;;;;;;;;;;;;17.29;71.30;100481.50;4974133;28;19968;-68
2022/10/23 04:05:36;;;;;;;;;;;;;;;17.39;70.81;100482.78;4975350;28;20004;-68
2022/10/23 04:08:02;;;;;;;;;;;;;;;17.37;70.65;100482.00;4976473;28;20275;-67
2022/10/23 04:10:27;;;;;;;;;;;;;;;17.59;70.19;100479.16;4975648;28;20021;-68
2022/10/23 04:12:52;;;;;;;;;;;;;;;17.39;70.58;100480.13;4975322;28;20611;-66
2022/10/23 04:15:18;;;;;;;;;;;;;;;17.84;69.06;100470.03;4977310;28;19922;-68
2022/10/23 04:17:43;;;;;;;;;;;;;;;17.87;68.86;100472.50;4978076;28;19918;-67
2022/10/23 04:20:08;;;;;;;;;;;;;;;17.84;69.01;100476.19;4975748;28;19925;-68
2022/10/23 04:22:34;;;;;;;;;;;;;;;18.03;68.46;100477.91;4976459;28;19918;-67
2022/10/23 04:24:59;;;;;;;;;;;;;;;18.88;65.32;100472.56;4974651;28;19925;-67
2022/10/23 04:27:24;;;;;;;;;;;;;;;18.91;65.36;100475.94;4975541;28;19926;-68
2022/10/23 04:29:49;;;;;;;;;;;;;;;18.64;65.75;100482.69;4978053;28;19910;-68
2022/10/23 04:32:15;;;;;;;;;;;;;;;18.46;66.44;100480.06;4975306;28;19922;-68
2022/10/23 04:34:40;;;;;;;;;;;;;;;18.33;66.99;100484.31;4978087;28;19917;-69
2022/10/23 04:37:05;;;;;;;;;;;;;;;18.20;67.52;100492.06;4976245;28;19918;-68
2022/10/23 04:39:30;;;;;;;;;;;;;;;18.33;67.02;100486.97;4977967;28;20016;-68
2022/10/23 04:41:56;;;;;;;;;;;;;;;18.31;67.25;100491.53;4976911;28;19941;-69
2022/10/23 04:44:21;;;;;;;;;;;;;;;18.26;67.52;100496.19;5006422;28;19918;-68
2022/10/23 04:46:46;;;;;;;;;;;;;;;18.37;67.07;100493.00;4975137;28;19918;-68
2022/10/23 04:49:12;;;;;;;;;;;;;;;18.38;67.30;100498.22;4975701;28;19929;-68
2022/10/23 04:51:37;;;;;;;;;;;;;;;18.41;66.91;100492.75;4976794;28;20029;-68
2022/10/23 04:54:02;;;;;;;;;;;;;;;18.39;66.82;100493.75;4977385;28;19965;-68
2022/10/23 04:56:28;;;;;;;;;;;;;;;18.42;66.76;100497.13;4976155;28;19941;-68
2022/10/23 04:58:53;;;;;;;;;;;;;;;18.43;66.87;100501.53;4976703;28;20405;-68
2022/10/23 05:01:19;;;;;;;;;;;;;;;18.49;66.76;100499.47;4975556;28;19924;-68
2022/10/23 05:03:44;;;;;;;;;;;;;;;17.91;68.75;100498.00;4976822;28;19972;-68
2022/10/23 05:06:09;;;;;;;;;;;;;;;18.32;67.46;100506.53;4974594;28;19917;-68
2022/10/23 05:08:34;;;;;;;;;;;;;;;18.35;67.28;100508.16;4976729;28;19922;-68
2022/10/23 05:11:00;;;;;;;;;;;;;;;18.32;67.49;100509.19;4976190;28;19922;-68
2022/10/23 05:13:25;;;;;;;;;;;;;;;17.81;69.39;100516.22;4972264;28;19925;-68
2022/10/23 05:15:51;;;;;;;;;;;;;;;17.90;69.55;100517.53;4977695;28;19917;-68
2022/10/23 05:18:22;;;;;;;;;;;;;;;18.14;68.47;100513.66;4974031;28;19972;-68
2022/10/23 05:20:49;;;;;;;;;;;;;;;18.11;68.50;100521.81;4975598;28;20442;-68
2022/10/23 05:23:15;;;;;;;;;;;;;;;18.19;68.06;100508.97;4975103;28;19919;-68
2022/10/23 05:25:40;;;;;;;;;;;;;;;18.17;68.39;100515.31;5007171;28;20305;-68
2022/10/23 05:28:06;;;;;;;;;;;;;;;18.20;68.20;100513.34;4975690;28;19914;-69
2022/10/23 05:30:31;;;;;;;;;;;;;;;18.28;67.76;100514.75;4975879;28;20357;-68
2022/10/23 05:32:58;;;;;;;;;;;;;;;18.29;67.66;100512.00;4976849;28;19973;-67
2022/10/23 05:35:23;;;;;;;;;;;;;;;18.24;68.11;100508.72;4976379;28;19921;-68
2022/10/23 05:37:50;;;;;;;;;;;;;;;18.27;67.73;100511.22;4975842;28;19922;-68
2022/10/23 05:40:16;;;;;;;;;;;;;;;18.30;67.85;100515.53;4975820;28;20147;-68
2022/10/23 05:42:41;;;;;;;;;;;;;;;18.26;67.81;100506.84;4977024;28;20441;-69
2022/10/23 05:45:07;;;;;;;;;;;;;;;18.33;67.70;100510.91;4974970;28;20010;-66
2022/10/23 05:47:32;;;;;;;;;;;;;;;18.36;67.70;100517.88;4973618;28;19969;-68
2022/10/23 05:49:57;;;;;;;;;;;;;;;18.41;67.22;100522.00;4976774;28;19976;-68
2022/10/23 05:52:23;;;;;;;;;;;;;;;18.37;67.27;100524.91;5006078;28;20309;-68
2022/10/23 05:54:51;;;;;;;;;;;;;;;18.41;67.38;100523.81;4974939;28;19941;-68
2022/10/23 05:57:17;;;;;;;;;;;;;;;18.46;66.80;100517.31;4975868;28;19945;-68
2022/10/23 05:59:42;;;;;;;;;;;;;;;18.83;65.83;100511.88;4971946;28;20362;-68
2022/10/23 06:02:07;;;;;;;;;;;;;;;19.02;65.02;100512.59;4974845;28;20390;-70
2022/10/23 06:04:34;;;;;;;;;;;;;;;19.16;64.47;100517.19;4974988;28;19922;-69
2022/10/23 06:06:59;;;;;;;;;;;;;;;19.14;64.71;100509.25;4975695;28;20021;-68
2022/10/23 06:09:24;;;;;;;;;;;;;;;19.11;64.63;100509.44;4974474;28;20382;-68
2022/10/23 06:11:50;;;;;;;;;;;;;;;19.23;64.16;100515.91;4975899;28;19965;-68
2022/10/23 06:14:15;;;;;;;;;;;;;;;19.20;64.27;100516.91;4975030;28;19922;-68
2022/10/23 06:16:40;;;;;;;;;;;;;;;19.11;64.78;100512.09;4975622;28;19978;-68
2022/10/23 06:19:08;;;;;;;;;;;;;;;19.17;64.17;100510.91;4973385;28;20001;-68
2022/10/23 06:21:35;;;;;;;;;;;;;;;19.16;64.50;100519.84;4975199;28;19961;-69
2022/10/23 06:24:00;;;;;;;;;;;;;;;19.26;64.29;100513.03;4973742;28;19914;-69
2022/10/23 06:26:25;;;;;;;;;;;;;;;19.31;64.29;100511.00;4974801;28;20024;-69
2022/10/23 06:28:51;;;;;;;;;;;;;;;19.39;63.70;100506.09;4977516;28;19922;-70
2022/10/23 06:31:18;;;;;;;;;;;;;;;19.33;64.09;100505.59;4992101;28;19920;-69
2022/10/23 06:33:44;;;;;;;;;;;;;;;19.42;63.89;100500.59;4979813;28;19918;-68
2022/10/23 06:36:09;;;;;;;;;;;;;;;19.39;63.56;100503.44;4974467;28;19914;-69
2022/10/23 06:38:39;;;;;;;;;;;;;;;19.50;63.41;100501.97;4975155;28;20333;-66
2022/10/23 06:41:06;;;;;;;;;;;;;;;19.51;63.62;100501.91;4974596;28;19926;-69
2022/10/23 06:43:31;;;;;;;;;;;;;;;19.51;63.36;100509.00;4975507;28;19913;-68
2022/10/23 06:45:59;;;;;;;;;;;;;;;19.42;63.80;100510.38;4973689;28;19997;-68
2022/10/23 06:48:24;;;;;;;;;;;;;;;19.53;63.00;100505.31;4973901;28;20558;-68
2022/10/23 06:50:50;;;;;;;;;;;;;;;19.26;63.49;100504.19;4974706;28;19922;-68
2022/10/23 06:53:15;;;;;;;;;;;;;;;19.29;63.41;100520.88;4974908;28;20009;-70
2022/10/23 06:55:40;;;;;;;;;;;;;;;19.87;62.13;100519.41;4974855;28;19918;-68
2022/10/23 06:58:09;;;;;;;;;;;;;;;19.97;61.68;100519.72;4975254;28;19922;-68
2022/10/23 07:00:35;;;;;;;;;;;;;;;19.98;61.66;100516.97;4973842;28;19941;-68
2022/10/23 07:03:00;;;;;;;;;;;;;;;20.03;61.25;100519.34;4975009;28;20281;-69
2022/10/23 07:05:25;;;;;;;;;;;;;;;19.79;61.72;100527.88;4973910;28;20012;-70
2022/10/23 07:07:51;;;;;;;;;;;;;;;19.51;62.24;100535.66;4975257;28;19918;-69
2022/10/23 07:10:16;;;;;;;;;;;;;;;19.35;62.86;100541.84;4972179;28;20348;-69
2022/10/23 07:12:42;;;;;;;;;;;;;;;19.20;63.01;100542.69;4975196;28;19922;-68
2022/10/23 07:15:08;;;;;;;;;;;;;;;19.16;63.58;100541.16;4974534;28;19925;-70
2022/10/23 07:17:33;;;;;;;;;;;;;;;19.06;63.38;100532.78;4973820;28;19922;-69
2022/10/23 07:19:58;;;;;;;;;;;;;;;18.78;64.95;100535.22;4974061;28;19930;-66
2022/10/23 07:22:24;;;;;;;;;;;;;;;18.85;64.84;100526.81;4975047;28;19949;-70
2022/10/23 07:24:49;;;;;;;;;;;;;;;18.90;64.74;100535.41;4974162;28;19934;-69
2022/10/23 07:27:14;;;;;;;;;;;;;;;19.14;64.32;100527.03;4975409;28;19918;-69
2022/10/23 07:29:40;;;;;;;;;;;;;;;19.26;64.08;100521.03;4974459;28;19929;-70
2022/10/23 07:32:06;;;;;;;;;;;;;;;19.37;63.70;100525.78;4975200;28;19922;-70
2022/10/23 07:34:31;;;;;;;;;;;;;;;19.29;63.67;100534.19;4974431;28;19922;-69
2022/10/23 07:36:57;;;;;;;;;;;;;;;19.48;63.01;100533.19;4973271;28;20014;-68
2022/10/23 07:39:22;;;;;;;;;;;;;;;19.44;63.26;100524.50;4975339;28;19944;-69
2022/10/23 07:41:47;;;;;;;;;;;;;;;19.44;63.26;100533.34;4976236;28;19918;-69
2022/10/23 07:44:13;;;;;;;;;;;;;;;19.45;63.31;100528.88;4978211;28;20362;-68
2022/10/23 07:46:38;;;;;;;;;;;;;;;19.42;63.38;100532.56;4978956;28;19928;-68
2022/10/23 07:49:04;;;;;;;;;;;;;;;19.48;63.09;100531.38;4978486;28;19922;-68
2022/10/23 07:51:29;;;;;;;;;;;;;;;19.56;62.59;100529.13;4977956;28;19948;-69
2022/10/23 07:53:54;;;;;;;;;;;;;;;19.55;62.89;100537.19;4978044;28;20005;-69
2022/10/23 07:56:22;;;;;;;;;;;;;;;19.48;63.17;100535.84;4978263;28;19922;-68
2022/10/23 07:58:49;;;;;;;;;;;;;;;19.62;62.76;100527.94;5009019;28;20365;-68
2022/10/23 08:01:21;;;;;;;;;;;;;;;19.50;62.40;100532.13;4981389;28;19914;-69
2022/10/23 08:03:47;;;;;;;;;;;;;;;19.39;63.51;100542.56;4978345;28;20381;-69
2022/10/23 08:06:12;;;;;;;;;;;;;;;19.47;63.26;100534.09;4978493;28;19918;-68
2022/10/23 08:08:37;;;;;;;;;;;;;;;19.48;63.51;100535.84;4975657;28;19926;-68
2022/10/23 08:11:03;;;;;;;;;;;;;;;19.62;63.08;100534.13;4968727;28;20366;-68
2022/10/23 08:13:28;;;;;;;;;;;;;;;19.80;62.55;100539.38;4958256;29;20373;-67
2022/10/23 08:15:54;;;;;;;;;;;;;;;19.78;62.23;100539.44;4971276;28;19961;-68
2022/10/23 08:18:20;;;;;;;;;;;;;;;19.73;62.51;100541.53;4976522;28;19929;-70
2022/10/23 08:20:46;;;;;;;;;;;;;;;19.66;62.85;100543.66;4974947;28;19926;-68
2022/10/23 08:23:12;;;;;;;;;;;;;;;19.87;62.15;100538.94;5005856;28;19922;-69
2022/10/23 08:25:38;;;;;;;;;;;;;;;19.93;62.13;100543.91;4977311;28;19940;-67
2022/10/23 08:28:04;;;;;;;;;;;;;;;19.87;62.09;100541.59;4977496;28;19925;-67
2022/10/23 08:30:29;;;;;;;;;;;;;;;19.72;62.85;100550.47;4977808;28;19914;-67
2022/10/23 08:32:55;;;;;;;;;;;;;;;19.69;62.55;100548.84;4977476;28;19945;-65
2022/10/23 08:35:20;;;;;;;;;;;;;;;19.59;62.40;100554.72;4976328;28;19944;-67
2022/10/23 08:37:45;;;;;;;;;;;;;;;19.56;62.88;100552.25;4978113;28;20292;-67
2022/10/23 08:40:18;;;;;;;;;;;;;;;19.57;63.17;100551.31;4977131;28;19926;-68
2022/10/23 08:42:47;;;;;;;;;;;;;;;19.54;63.40;100559.47;4959179;28;19965;-67
2022/10/23 08:45:27;;;;;;;;;;;;;;;19.44;63.73;100556.47;5007491;28;20008;-68
2022/10/23 08:47:56;;;;;;;;;;;;;;;19.24;64.57;100565.56;4977137;28;19922;-68
2022/10/23 08:50:27;;;;;;;;;;;;;;;19.06;65.45;100561.22;4977161;28;20446;-68
2022/10/23 08:52:58;;;;;;;;;;;;;;;19.23;64.90;100563.84;4977225;28;19936;-68
2022/10/23 08:55:23;;;;;;;;;;;;;;;19.05;65.11;100559.50;4977527;28;19926;-68
2022/10/23 08:58:00;;;;;;;;;;;;;;;19.34;64.84;100556.09;4973739;28;20019;-68
2022/10/23 09:00:26;;;;;;;;;;;;;;;19.71;63.90;100559.44;4975902;28;20453;-68
2022/10/23 09:02:52;;;;;;;;;;;;;;;19.91;62.54;100561.81;4975594;28;20004;-68
2022/10/23 09:05:29;;;;;;;;;;;;;;;20.07;62.65;100561.78;4977037;28;19968;-68
2022/10/23 09:08:17;;;;;;;;;;;;;;;20.52;61.69;100564.53;4974822;28;20388;-68
2022/10/23 09:10:45;;;;;;;;;;;;;;;20.51;60.90;100576.16;4976287;28;19914;-67
2022/10/23 09:13:16;;;;;;;;;;;;;;;20.37;61.17;100566.25;4976124;28;19925;-68
2022/10/23 09:15:46;;;;;;;;;;;;;;;20.25;61.64;100567.84;4973643;28;19926;-64
2022/10/23 09:18:13;;;;;;;;;;;;;;;20.33;61.20;100562.91;4972016;28;19924;-64
2022/10/23 09:20:40;;;;;;;;;;;;;;;20.32;61.31;100566.53;4986736;28;19968;-64
2022/10/23 09:23:16;;;;;;;;;;;;;;;19.79;62.69;100578.50;4995407;28;19914;-67
2022/10/23 09:25:41;;;;;;;;;;;;;;;20.06;61.95;100575.19;4995705;28;19914;-64
2022/10/23 09:28:17;;;;;;;;;;;;;;;20.30;61.42;100573.75;4995253;28;19921;-64
2022/10/23 09:30:42;;;;;;;;;;;;;;;20.38;60.11;100584.84;4996704;28;19914;-65
2022/10/23 09:33:18;;;;;;;;;;;;;;;20.56;60.15;100596.28;4996490;28;20005;-64
2022/10/23 09:35:53;;;;;;;;;;;;;;;20.42;60.02;100589.03;4996250;28;19921;-63
2022/10/23 09:38:25;;;;;;;;;;;;;;;20.33;60.60;100588.72;4996215;28;19914;-65
2022/10/23 09:40:50;;;;;;;;;;;;;;;20.28;60.24;100596.16;4996451;28;19937;-65
2022/10/23 09:43:17;;;;;;;;;;;;;;;20.25;60.27;100599.84;4996568;28;19917;-65
2022/10/23 09:45:43;;;;;;;;;;;;;;;20.48;59.65;100592.31;4995947;28;19929;-65
2022/10/23 09:48:08;;;;;;;;;;;;;;;20.02;60.60;100589.66;4995629;28;20366;-65
2022/10/23 09:50:33;;;;;;;;;;;;;;;20.36;59.98;100591.22;4995476;28;20297;-64
2022/10/23 09:52:59;;;;;;;;;;;;;;;20.49;59.24;100583.38;4995873;28;19917;-64
2022/10/23 09:55:24;;;;;;;;;;;;;;;20.66;58.74;100592.06;4995871;28;19972;-64
2022/10/23 09:57:50;;;;;;;;;;;;;;;20.49;58.40;100594.06;4989955;28;20359;-64
2022/10/23 10:00:15;;;;;;;;;;;;;;;20.46;59.38;100600.38;4974404;28;19933;-64
2022/10/23 10:02:42;;;;;;;;;;;;;;;20.37;59.71;100596.47;4974234;28;19918;-65
2022/10/23 10:05:21;;;;;;;;;;;;;;;20.27;59.47;100605.97;4973081;28;20008;-64
2022/10/23 10:07:54;;;;;;;;;;;;;;;20.39;59.72;100599.91;4972780;28;19944;-63
2022/10/23 10:10:20;;;;;;;;;;;;;;;20.44;59.59;100596.97;4971076;28;20008;-64
2022/10/23 10:12:53;;;;;;;;;;;;;;;20.30;59.82;100597.75;4973670;28;19962;-63
2022/10/23 10:15:25;;;;;;;;;;;;;;;20.49;59.26;100594.91;4975794;28;19909;-63
2022/10/23 10:17:56;;;;;;;;;;;;;;;20.21;59.05;100600.97;4975912;28;19924;-63
2022/10/23 10:20:33;;;;;;;;;;;;;;;19.78;60.69;100600.75;4976105;28;19953;-63
2022/10/23 10:23:05;;;;;;;;;;;;;;;19.80;60.60;100596.22;4975980;28;19914;-64
2022/10/23 10:25:43;;;;;;;;;;;;;;;19.89;60.44;100606.34;4973640;28;19933;-63
2022/10/23 10:28:25;;;;;;;;;;;;;;;20.04;59.87;100601.97;4979820;28;19917;-65
2022/10/23 10:31:08;;;;;;;;;;;;;;;19.91;60.37;100607.16;4956648;29;19918;-64
2022/10/23 10:33:48;;;;;;;;;;;;;;;19.84;60.84;100602.25;4966463;28;20378;-64
2022/10/23 10:36:42;;;;;;;;;;;;;;;19.81;60.44;100595.25;4975810;28;19914;-64
2022/10/23 10:39:14;;;;;;;;;;;;;;;19.98;60.24;100598.78;4966597;28;19968;-65
2022/10/23 10:41:51;;;;;;;;;;;;;;;20.06;59.83;100602.72;4974756;28;19917;-64
2022/10/23 10:44:37;;;;;;;;;;;;;;;20.20;59.91;100599.28;4972563;28;19926;-64
2022/10/23 10:47:05;;;;;;;;;;;;;;;20.32;59.61;100603.03;4975496;28;19968;-65
2022/10/23 10:49:30;;;;;;;;;;;;;;;20.42;58.95;100604.19;4975460;28;20400;-63
2022/10/23 10:52:05;;;;;;;;;;;;;;;20.40;58.86;100601.63;4975525;28;19978;-64
2022/10/23 10:54:52;;;;;;;;;;;;;;;20.40;58.62;100609.63;4974946;28;19929;-63
2022/10/23 10:57:28;;;;;;;;;;;;;;;20.43;58.46;100598.78;4973822;28;19918;-64
2022/10/23 10:59:55;;;;;;;;;;;;;;;20.42;58.53;100596.19;4974986;28;19914;-64
2022/10/23 11:02:40;;;;;;;;;;;;;;;20.38;58.44;100606.19;4970853;28;20374;-63
2022/10/23 11:05:08;;;;;;;;;;;;;;;20.26;58.89;100601.56;4974925;28;19918;-64
2022/10/23 11:07:37;;;;;;;;;;;;;;;20.24;58.96;100597.28;4971741;28;20005;-65
2022/10/23 11:10:04;;;;;;;;;;;;;;;19.83;59.27;100601.38;4974977;28;19961;-64
2022/10/23 11:12:29;;;;;;;;;;;;;;;19.69;59.71;100603.97;4974880;28;19914;-65
2022/10/23 11:14:55;;;;;;;;;;;;;;;19.75;59.24;100602.75;4975426;28;19926;-66
2022/10/23 11:17:26;;;;;;;;;;;;;;;19.78;59.65;100603.44;4975311;28;20294;-66
2022/10/23 11:19:54;;;;;;;;;;;;;;;19.72;59.49;100603.78;4972720;28;19925;-66
2022/10/23 11:22:26;;;;;;;;;;;;;;;19.86;59.46;100606.53;4971730;28;20064;-64
2022/10/23 11:25:04;;;;;;;;;;;;;;;19.98;58.86;100612.13;4972799;28;19918;-65
2022/10/23 11:27:29;;;;;;;;;;;;;;;19.50;59.80;100603.22;4970361;28;20004;-65
2022/10/23 11:30:21;;;;;;;;;;;;;;;19.45;59.81;100604.34;4977585;28;20013;-65
2022/10/23 11:32:49;;;;;;;;;;;;;;;19.64;59.34;100606.88;4972301;28;20366;-65
2022/10/23 11:35:20;;;;;;;;;;;;;;;19.55;59.32;100604.72;4974538;28;19921;-66
2022/10/23 11:37:56;;;;;;;;;;;;;;;19.59;58.97;100606.25;4992228;28;20331;-65
2022/10/23 11:40:22;;;;;;;;;;;;;;;19.86;58.58;100601.19;4994618;28;20393;-65
2022/10/23 11:42:48;;;;;;;;;;;;;;;19.99;58.12;100613.81;4977845;28;19914;-66
2022/10/23 11:45:27;;;;;;;;;;;;;;;20.00;57.62;100602.22;4974392;28;19922;-65
2022/10/23 11:48:15;;;;;;;;;;;;;;;19.65;58.11;100608.59;4973039;28;20056;-65
2022/10/23 11:50:43;;;;;;;;;;;;;;;20.04;56.56;100598.44;4974624;28;19968;-65
2022/10/23 11:53:24;;;;;;;;;;;;;;;20.01;56.19;100593.28;4971585;28;19964;-65
2022/10/23 11:55:57;;;;;;;;;;;;;;;20.04;56.66;100603.78;4973867;28;19922;-64
2022/10/23 11:58:30;;;;;;;;;;;;;;;20.09;56.40;100599.03;4973474;28;19917;-65
2022/10/23 12:01:01;;;;;;;;;;;;;;;20.22;55.96;100601.84;4973486;28;20358;-65
2022/10/23 12:03:35;;;;;;;;;;;;;;;20.31;55.82;100594.16;4973696;28;19918;-64
2022/10/23 12:06:03;;;;;;;;;;;;;;;20.49;55.09;100581.56;4973180;28;20385;-64
2022/10/23 12:08:30;;;;;;;;;;;;;;;20.47;55.09;100582.56;4973662;28;20319;-65
2022/10/23 12:10:56;;;;;;;;;;;;;;;20.64;55.07;100586.00;4973574;28;19925;-64
2022/10/23 12:13:27;;;;;;;;;;;;;;;20.63;54.73;100586.09;4973217;28;19922;-65
2022/10/23 12:15:54;;;;;;;;;;;;;;;20.37;55.69;100585.78;4974270;28;19916;-65
2022/10/23 12:18:19;;;;;;;;;;;;;;;20.51;54.85;100576.16;4973601;28;19918;-65
2022/10/23 12:20:53;;;;;;;;;;;;;;;20.42;55.04;100583.69;4971963;28;19929;-64
2022/10/23 12:23:29;;;;;;;;;;;;;;;20.24;55.85;100583.94;4955123;28;19918;-66
2022/10/23 12:26:19;;;;;;;;;;;;;;;20.13;55.90;100592.56;4970865;28;19925;-65
2022/10/23 12:28:47;;;;;;;;;;;;;;;20.22;56.18;100584.00;4977534;28;19932;-64
2022/10/23 12:31:27;;;;;;;;;;;;;;;20.20;56.25;100583.25;4976379;28;19918;-66
2022/10/23 12:34:19;;;;;;;;;;;;;;;20.09;55.93;100588.34;4978178;28;19961;-65
2022/10/23 12:37:05;;;;;;;;;;;;;;;19.81;56.31;100584.59;4974897;28;19926;-64
2022/10/23 12:39:32;;;;;;;;;;;;;;;19.99;55.15;100587.16;4966132;28;19926;-66
2022/10/23 12:41:58;;;;;;;;;;;;;;;19.79;55.42;100583.84;4976206;28;19953;-67
2022/10/23 12:44:24;;;;;;;;;;;;;;;19.68;55.18;100589.78;4977066;28;19926;-66